Time;durP1;ratioP1;P1;durP2;ratioP2;P2;SDS_P1;SDS_P2;PMS_P1;PMS_P2;Temp;Humidity;BMP_temperature;BMP_pressure;BME280_temperature;BME280_humidity;BME280_pressure;Samples;Min_cycle;Max_cycle;Signal;HPM_P1;HPM_P2
2021/06/04 00:02:07;;;;;;;12.93;8.50;;;20.20;74.70;;;;;;5083378;28;20218;-72
2021/06/04 00:04:34;;;;;;;8.00;7.20;;;20.20;74.80;;;;;;5083066;28;20213;-72
2021/06/04 00:07:03;;;;;;;8.93;6.73;;;20.20;74.80;;;;;;5084154;28;20221;-72
2021/06/04 00:09:30;;;;;;;6.87;6.23;;;20.20;74.70;;;;;;5086591;28;20217;-72
2021/06/04 00:12:00;;;;;;;7.57;6.97;;;20.20;74.70;;;;;;5078953;28;20557;-71
2021/06/04 00:14:40;;;;;;;7.80;7.00;;;20.10;74.60;;;;;;5082276;28;20510;-71
2021/06/04 00:17:13;;;;;;;9.60;7.13;;;20.00;74.50;;;;;;5085131;28;20213;-72
2021/06/04 00:19:41;;;;;;;9.60;6.93;;;20.00;74.40;;;;;;5084454;28;20592;-71
2021/06/04 00:22:11;;;;;;;9.57;7.27;;;19.90;74.40;;;;;;5083590;28;20248;-72
2021/06/04 00:24:41;;;;;;;7.60;6.07;;;19.80;74.60;;;;;;5084898;28;20217;-72
2021/06/04 00:27:10;;;;;;;7.30;6.60;;;19.70;74.90;;;;;;5082427;28;20217;-71
2021/06/04 00:29:38;;;;;;;8.50;6.33;;;19.70;75.20;;;;;;5082339;28;20217;-72
2021/06/04 00:32:06;;;;;;;7.20;6.50;;;19.70;75.30;;;;;;5082672;28;20665;-72
2021/06/04 00:34:35;;;;;;;11.30;7.03;;;19.70;75.30;;;;;;5085367;28;20689;-72
2021/06/04 00:37:02;;;;;;;8.50;6.83;;;19.80;75.30;;;;;;5082936;28;20246;-72
2021/06/04 00:39:32;;;;;;;15.40;6.87;;;19.70;75.30;;;;;;5082868;28;20208;-72
2021/06/04 00:42:08;;;;;;;7.07;6.23;;;19.70;75.30;;;;;;5084925;28;20223;-72
2021/06/04 00:44:36;;;;;;;7.90;7.10;;;19.70;75.30;;;;;;5079243;28;20251;-72
2021/06/04 00:47:04;;;;;;;8.10;7.40;;;19.60;75.50;;;;;;5083134;28;20213;-72
2021/06/04 00:49:31;;;;;;;10.90;7.43;;;19.50;76.10;;;;;;5084966;28;20217;-72
2021/06/04 00:52:15;;;;;;;10.23;8.20;;;19.40;76.00;;;;;;5081996;28;20324;-72
2021/06/04 00:54:44;;;;;;;16.17;8.87;;;19.20;76.80;;;;;;5082887;28;20221;-72
2021/06/04 00:57:12;;;;;;;10.07;9.10;;;19.10;77.00;;;;;;5084510;28;20213;-72
2021/06/04 00:59:41;;;;;;;11.77;7.57;;;18.90;77.30;;;;;;5080362;28;20209;-72
2021/06/04 01:02:11;;;;;;;9.03;7.83;;;18.80;78.10;;;;;;5082635;28;20218;-72
2021/06/04 01:04:39;;;;;;;8.80;7.93;;;18.80;78.30;;;;;;5082403;28;20237;-72
2021/06/04 01:07:06;;;;;;;9.03;7.70;;;18.80;78.40;;;;;;5084437;28;20278;-72
2021/06/04 01:09:52;;;;;;;9.67;8.03;;;18.90;78.50;;;;;;5082848;28;20217;-72
2021/06/04 01:12:45;;;;;;;9.27;8.37;;;18.80;78.40;;;;;;5078149;28;20237;-72
2021/06/04 01:15:21;;;;;;;8.57;7.43;;;18.70;78.60;;;;;;5079739;28;20220;-72
2021/06/04 01:18:02;;;;;;;11.40;8.40;;;18.80;78.90;;;;;;5082940;28;20538;-72
2021/06/04 01:20:37;;;;;;;12.50;10.13;;;18.80;79.00;;;;;;5079841;28;20558;-72
2021/06/04 01:23:38;;;;;;;10.90;8.70;;;18.90;79.00;;;;;;5077478;28;20216;-72
2021/06/04 01:26:15;;;;;;;12.53;8.97;;;18.90;79.00;;;;;;5080659;28;20212;-72
2021/06/04 01:28:46;;;;;;;9.87;8.87;;;18.90;79.10;;;;;;5083342;28;20211;-72
2021/06/04 01:31:18;;;;;;;13.20;8.63;;;18.90;78.70;;;;;;5077913;28;20576;-71
2021/06/04 01:33:50;;;;;;;10.20;8.20;;;18.80;79.10;;;;;;5084269;28;20805;-73
2021/06/04 01:36:24;;;;;;;14.90;9.37;;;18.80;79.50;;;;;;5084844;28;20201;-72
2021/06/04 01:38:53;;;;;;;14.20;10.23;;;18.80;79.60;;;;;;5083794;28;20228;-72
2021/06/04 01:41:28;;;;;;;10.30;9.40;;;18.80;79.50;;;;;;5083407;28;20209;-72
2021/06/04 01:44:02;;;;;;;10.03;9.03;;;18.80;79.60;;;;;;5077858;28;20223;-72
2021/06/04 01:46:34;;;;;;;10.33;9.43;;;18.70;79.60;;;;;;5083402;28;20227;-72
2021/06/04 01:49:10;;;;;;;9.13;8.27;;;18.70;79.40;;;;;;5081238;28;20217;-71
2021/06/04 01:51:45;;;;;;;13.43;9.57;;;18.80;79.50;;;;;;5083166;28;20689;-71
2021/06/04 01:54:29;;;;;;;11.97;10.47;;;18.70;79.60;;;;;;5084632;28;20212;-72
2021/06/04 01:57:03;;;;;;;8.63;7.83;;;18.70;79.60;;;;;;5084804;28;20300;-71
2021/06/04 01:59:33;;;;;;;9.07;7.60;;;18.60;78.90;;;;;;5082395;28;20205;-71
2021/06/04 02:02:02;;;;;;;8.97;8.03;;;18.50;79.10;;;;;;5086847;28;20681;-72
2021/06/04 02:04:38;;;;;;;12.47;10.30;;;18.40;79.50;;;;;;5087966;28;20221;-72
2021/06/04 02:07:10;;;;;;;10.07;8.50;;;18.30;80.20;;;;;;5082905;28;20213;-72
2021/06/04 02:09:38;;;;;;;10.57;9.20;;;18.20;80.60;;;;;;5086480;28;20217;-72
2021/06/04 02:12:08;;;;;;;9.90;9.00;;;18.10;80.70;;;;;;5088298;28;20232;-72
2021/06/04 02:14:44;;;;;;;9.73;8.93;;;18.10;80.60;;;;;;5081194;28;20210;-72
2021/06/04 02:17:31;;;;;;;11.03;9.93;;;18.10;80.90;;;;;;5086318;28;20213;-72
2021/06/04 02:20:31;;;;;;;11.67;10.50;;;18.10;81.30;;;;;;5084787;28;20660;-72
2021/06/04 02:23:18;;;;;;;10.63;9.60;;;18.10;81.70;;;;;;5072745;28;20239;-72
2021/06/04 02:26:06;;;;;;;17.67;8.20;;;18.10;81.40;;;;;;5087060;28;20649;-71
2021/06/04 02:28:36;;;;;;;9.73;8.10;;;18.10;81.20;;;;;;5084518;28;20213;-72
2021/06/04 02:31:27;;;;;;;14.23;10.27;;;18.00;81.00;;;;;;5087044;28;20216;-72
2021/06/04 02:34:14;;;;;;;11.60;10.63;;;17.90;81.70;;;;;;5080836;28;20263;-71
2021/06/04 02:36:56;;;;;;;12.80;11.17;;;17.80;82.50;;;;;;5088299;28;20208;-71
2021/06/04 02:39:42;;;;;;;13.83;11.40;;;17.80;83.30;;;;;;5087312;28;20209;-72
2021/06/04 02:42:15;;;;;;;14.63;13.43;;;17.80;83.70;;;;;;5065487;28;20343;-72
2021/06/04 02:44:53;;;;;;;13.13;11.60;;;17.80;83.80;;;;;;5084159;28;20225;-72
2021/06/04 02:47:30;;;;;;;12.90;11.60;;;17.80;84.30;;;;;;5087715;28;20523;-72
2021/06/04 02:50:00;;;;;;;12.83;11.53;;;17.80;84.30;;;;;;5081336;28;20239;-71
2021/06/04 02:52:40;;;;;;;12.50;11.13;;;17.80;84.30;;;;;;5086186;28;20237;-72
2021/06/04 02:55:31;;;;;;;12.90;11.60;;;17.90;84.20;;;;;;5080923;28;20220;-71
2021/06/04 02:57:59;;;;;;;14.57;10.47;;;17.90;84.10;;;;;;5081179;28;20681;-72
2021/06/04 03:00:35;;;;;;;11.17;10.23;;;17.90;83.90;;;;;;5084393;28;20213;-71
2021/06/04 03:03:02;;;;;;;14.03;10.90;;;17.90;83.80;;;;;;5084507;28;20583;-71
2021/06/04 03:05:33;;;;;;;12.73;11.33;;;18.00;83.90;;;;;;5080518;28;20810;-72
2021/06/04 03:08:01;;;;;;;13.40;12.10;;;18.00;84.00;;;;;;5085933;28;20561;-72
2021/06/04 03:10:33;;;;;;;12.27;11.17;;;17.90;84.00;;;;;;5086163;28;20640;-72
2021/06/04 03:13:02;;;;;;;12.00;10.40;;;17.90;84.00;;;;;;5084022;28;20740;-72
2021/06/04 03:15:39;;;;;;;14.53;13.07;;;17.80;83.80;;;;;;5084649;28;20245;-71
2021/06/04 03:18:09;;;;;;;13.63;12.43;;;17.70;84.10;;;;;;5087256;28;20205;-71
2021/06/04 03:20:40;;;;;;;17.43;15.13;;;17.60;85.60;;;;;;5080514;28;20210;-72
2021/06/04 03:23:12;;;;;;;17.00;12.23;;;17.50;85.70;;;;;;5085935;28;20270;-72
2021/06/04 03:25:51;;;;;;;10.47;9.43;;;17.50;85.90;;;;;;5087230;28;20220;-72
2021/06/04 03:28:20;;;;;;;15.87;10.93;;;17.50;85.50;;;;;;5085046;28;20217;-72
2021/06/04 03:30:48;;;;;;;13.17;11.87;;;17.50;85.70;;;;;;5082538;28;20225;-71
2021/06/04 03:33:20;;;;;;;14.97;12.33;;;17.60;85.00;;;;;;5083244;28;20245;-73
2021/06/04 03:35:48;;;;;;;13.93;12.20;;;17.60;85.30;;;;;;5082666;28;20210;-72
2021/06/04 03:38:17;;;;;;;13.70;12.30;;;17.60;85.50;;;;;;5085191;28;20225;-72
2021/06/04 03:40:45;;;;;;;14.67;12.53;;;17.60;85.60;;;;;;5083045;28;20213;-72
2021/06/04 03:43:15;;;;;;;13.83;11.00;;;17.60;85.60;;;;;;5087105;28;20521;-72
2021/06/04 03:45:44;;;;;;;11.97;10.73;;;17.60;85.40;;;;;;5083247;28;20727;-72
2021/06/04 03:48:17;;;;;;;14.53;12.93;;;17.60;85.20;;;;;;5084785;28;20264;-72
2021/06/04 03:50:48;;;;;;;12.20;11.10;;;17.50;85.50;;;;;;5086808;28;20213;-72
2021/06/04 03:53:15;;;;;;;10.80;9.80;;;17.50;85.90;;;;;;5084702;28;20238;-72
2021/06/04 03:55:43;;;;;;;13.53;11.53;;;17.50;85.70;;;;;;5084671;28;20586;-72
2021/06/04 03:58:12;;;;;;;13.80;12.33;;;17.60;85.60;;;;;;5086320;28;20220;-71
2021/06/04 04:00:49;;;;;;;13.50;12.20;;;17.60;85.40;;;;;;5088202;28;20212;-71
2021/06/04 04:03:19;;;;;;;13.97;12.37;;;17.60;85.40;;;;;;5085446;28;20210;-71
2021/06/04 04:05:46;;;;;;;15.80;13.73;;;17.70;85.50;;;;;;5083417;28;20657;-71
2021/06/04 04:08:17;;;;;;;16.20;14.27;;;17.70;85.60;;;;;;5079772;28;20841;-72
2021/06/04 04:10:45;;;;;;;18.23;15.03;;;17.70;85.60;;;;;;5084931;28;20209;-71
2021/06/04 04:13:16;;;;;;;18.07;16.47;;;17.80;85.60;;;;;;5085518;28;20233;-72
2021/06/04 04:15:44;;;;;;;19.80;16.63;;;17.80;85.50;;;;;;5081119;28;20220;-72
2021/06/04 04:18:12;;;;;;;16.30;14.70;;;17.90;85.20;;;;;;5082734;28;20218;-72
2021/06/04 04:20:45;;;;;;;17.67;16.07;;;17.90;85.00;;;;;;5084471;28;20213;-72
2021/06/04 04:23:15;;;;;;;20.00;17.33;;;18.00;85.00;;;;;;5086007;28;20220;-72
2021/06/04 04:25:44;;;;;;;19.73;17.53;;;18.10;85.00;;;;;;5079946;28;20222;-72
2021/06/04 04:28:16;;;;;;;19.90;17.87;;;18.20;84.90;;;;;;5084599;28;20217;-72
2021/06/04 04:30:43;;;;;;;19.23;16.83;;;18.20;84.50;;;;;;5082795;28;20562;-72
2021/06/04 04:33:11;;;;;;;19.73;17.73;;;18.30;84.30;;;;;;5086783;28;20245;-72
2021/06/04 04:35:38;;;;;;;21.13;18.70;;;18.40;84.30;;;;;;5083714;28;20221;-72
2021/06/04 04:38:07;;;;;;;19.97;17.60;;;18.50;84.30;;;;;;5084382;28;20223;-71
2021/06/04 04:40:37;;;;;;;18.13;16.27;;;18.60;84.00;;;;;;5083904;28;20216;-73
2021/06/04 04:43:08;;;;;;;25.10;17.93;;;18.80;83.80;;;;;;5082501;28;20221;-72
2021/06/04 04:45:36;;;;;;;19.00;17.13;;;19.00;83.30;;;;;;5082400;28;20220;-72
2021/06/04 04:48:05;;;;;;;22.37;18.47;;;19.20;82.50;;;;;;5082676;28;20230;-72
2021/06/04 04:50:33;;;;;;;23.30;18.90;;;19.40;82.70;;;;;;5084628;28;20232;-72
2021/06/04 04:53:00;;;;;;;24.67;17.53;;;19.50;81.90;;;;;;5074501;28;20237;-72
2021/06/04 04:55:34;;;;;;;21.23;17.60;;;19.60;81.70;;;;;;5083931;28;20668;-72
2021/06/04 04:58:01;;;;;;;21.33;17.87;;;19.60;81.60;;;;;;5083281;28;20258;-72
2021/06/04 05:00:29;;;;;;;20.67;17.17;;;19.70;81.50;;;;;;5080637;28;20212;-72
2021/06/04 05:02:57;;;;;;;20.33;18.00;;;19.80;81.20;;;;;;5077876;28;20225;-72
2021/06/04 05:05:28;;;;;;;19.03;17.07;;;20.00;80.90;;;;;;5083406;28;20220;-72
2021/06/04 05:07:55;;;;;;;24.80;19.20;;;20.10;80.40;;;;;;5082995;28;20217;-72
2021/06/04 05:10:22;;;;;;;20.00;17.80;;;20.10;79.60;;;;;;5080930;28;20216;-72
2021/06/04 05:12:49;;;;;;;20.03;17.87;;;20.20;79.80;;;;;;5077754;28;20222;-72
2021/06/04 05:15:20;;;;;;;20.53;18.43;;;20.30;79.30;;;;;;5079280;28;20205;-72
2021/06/04 05:17:48;;;;;;;20.53;17.90;;;20.40;78.80;;;;;;5082946;28;20218;-72
2021/06/04 05:20:16;;;;;;;21.00;17.77;;;20.50;78.70;;;;;;5082667;28;20201;-72
2021/06/04 05:22:43;;;;;;;19.77;17.40;;;20.70;78.50;;;;;;5077735;28;20205;-72
2021/06/04 05:25:15;;;;;;;21.17;17.43;;;20.80;78.20;;;;;;5076814;28;20218;-72
2021/06/04 05:27:44;;;;;;;19.97;17.83;;;21.00;78.20;;;;;;5082794;28;20814;-72
2021/06/04 05:30:17;;;;;;;17.80;16.17;;;21.10;78.00;;;;;;5082798;28;20649;-72
2021/06/04 05:32:45;;;;;;;17.87;16.07;;;21.40;77.60;;;;;;5080688;28;20559;-72
2021/06/04 05:35:13;;;;;;;19.63;15.53;;;21.80;76.70;;;;;;5078847;28;20210;-72
2021/06/04 05:37:41;;;;;;;17.97;16.37;;;22.10;75.70;;;;;;5082130;28;20221;-72
2021/06/04 05:40:16;;;;;;;17.40;15.67;;;22.40;74.90;;;;;;5083614;28;20202;-72
2021/06/04 05:42:44;;;;;;;18.33;16.47;;;22.60;74.00;;;;;;5081352;28;20205;-72
2021/06/04 05:45:21;;;;;;;20.10;16.87;;;22.80;73.00;;;;;;5082489;28;20660;-72
2021/06/04 05:47:49;;;;;;;19.03;17.20;;;23.00;72.30;;;;;;5081582;28;20633;-72
2021/06/04 05:50:26;;;;;;;19.90;17.60;;;23.20;71.70;;;;;;5083545;28;20276;-72
2021/06/04 05:52:54;;;;;;;19.53;17.13;;;23.30;71.50;;;;;;5076897;28;20638;-72
2021/06/04 05:55:25;;;;;;;20.40;16.60;;;23.40;71.30;;;;;;5081620;28;20220;-72
2021/06/04 05:57:52;;;;;;;19.17;16.00;;;23.60;71.10;;;;;;5083953;28;20219;-72
2021/06/04 06:00:28;;;;;;;19.13;16.07;;;23.70;70.60;;;;;;5079697;28;20209;-72
2021/06/04 06:02:56;;;;;;;17.13;15.60;;;23.80;69.80;;;;;;5078241;28;20217;-72
2021/06/04 06:05:25;;;;;;;17.97;16.07;;;23.90;69.40;;;;;;5080903;28;20581;-72
2021/06/04 06:07:53;;;;;;;19.73;16.10;;;24.00;68.90;;;;;;5084778;28;20224;-72
2021/06/04 06:10:24;;;;;;;19.77;16.13;;;24.10;69.00;;;;;;5077848;28;20271;-72
2021/06/04 06:12:53;;;;;;;18.53;16.83;;;24.20;68.70;;;;;;5081686;28;20217;-72
2021/06/04 06:15:24;;;;;;;18.97;16.73;;;24.40;68.00;;;;;;5080445;28;20220;-72
2021/06/04 06:17:52;;;;;;;20.60;15.87;;;24.60;67.50;;;;;;5084651;28;20217;-73
2021/06/04 06:20:21;;;;;;;18.47;16.60;;;24.70;66.60;;;;;;5082145;28;20289;-73
2021/06/04 06:22:50;;;;;;;25.00;17.50;;;24.80;66.00;;;;;;5082783;28;20220;-72
2021/06/04 06:25:23;;;;;;;20.30;17.30;;;25.00;66.30;;;;;;5072484;28;20209;-72
2021/06/04 06:27:50;;;;;;;19.63;17.57;;;25.20;66.10;;;;;;5081547;28;20219;-72
2021/06/04 06:30:21;;;;;;;18.27;16.50;;;25.30;65.40;;;;;;5083377;28;20216;-73
2021/06/04 06:32:49;;;;;;;17.03;15.53;;;25.40;64.60;;;;;;5083013;28;20252;-73
2021/06/04 06:35:17;;;;;;;18.43;16.07;;;25.60;63.90;;;;;;5080525;28;20217;-72
2021/06/04 06:37:44;;;;;;;20.03;18.10;;;25.80;63.60;;;;;;5086696;28;20210;-73
2021/06/04 06:40:12;;;;;;;19.03;16.90;;;25.90;63.70;;;;;;5083114;28;20663;-73
2021/06/04 06:42:39;;;;;;;19.90;16.43;;;26.00;63.30;;;;;;5083147;28;20221;-73
2021/06/04 06:45:10;;;;;;;19.97;17.27;;;26.10;62.60;;;;;;5083863;28;20224;-72
2021/06/04 06:47:38;;;;;;;22.50;16.43;;;26.30;62.80;;;;;;5081109;28;20214;-72
2021/06/04 06:50:08;;;;;;;18.37;16.57;;;26.40;62.70;;;;;;5087163;28;20213;-73
2021/06/04 06:52:35;;;;;;;21.33;15.63;;;26.60;63.00;;;;;;5087139;28;20205;-72
2021/06/04 06:55:05;;;;;;;12.50;10.67;;;26.80;62.20;;;;;;5084749;28;20260;-73
2021/06/04 06:57:32;;;;;;;11.77;9.63;;;26.90;60.90;;;;;;5083760;28;20213;-73
2021/06/04 06:59:59;;;;;;;11.80;8.80;;;27.10;59.40;;;;;;5085964;28;20214;-73
2021/06/04 07:02:26;;;;;;;9.97;8.97;;;27.20;58.60;;;;;;5084175;28;20267;-73
2021/06/04 07:04:53;;;;;;;9.53;8.53;;;27.40;58.60;;;;;;5080912;28;20232;-74
2021/06/04 07:07:21;;;;;;;8.03;7.00;;;27.50;57.20;;;;;;5087771;28;20775;-74
2021/06/04 07:09:48;;;;;;;10.97;8.07;;;27.60;56.50;;;;;;5085824;28;20217;-74
2021/06/04 07:12:15;;;;;;;8.57;7.07;;;27.70;55.50;;;;;;5087078;28;20221;-73
2021/06/04 07:14:43;;;;;;;8.80;7.93;;;27.80;55.10;;;;;;5079431;28;20260;-73
2021/06/04 07:17:10;;;;;;;12.00;7.90;;;27.90;54.60;;;;;;5085932;28;20223;-72
2021/06/04 07:19:37;;;;;;;14.77;7.47;;;28.00;54.10;;;;;;5086445;28;20213;-74
2021/06/04 07:22:05;;;;;;;8.40;7.60;;;28.10;53.60;;;;;;5083982;28;20209;-73
2021/06/04 07:24:32;;;;;;;8.03;7.23;;;28.20;52.60;;;;;;5086341;28;20227;-73
2021/06/04 07:27:00;;;;;;;9.60;8.10;;;28.30;52.70;;;;;;5085800;28;20614;-73
2021/06/04 07:29:29;;;;;;;9.70;7.97;;;28.40;52.30;;;;;;5084255;28;20218;-73
2021/06/04 07:31:57;;;;;;;9.13;7.47;;;28.40;51.60;;;;;;5081386;28;20549;-73
2021/06/04 07:34:27;;;;;;;7.83;7.13;;;28.60;51.00;;;;;;5081465;28;20688;-73
2021/06/04 07:36:57;;;;;;;8.00;6.70;;;28.70;52.00;;;;;;5085948;28;20555;-73
2021/06/04 07:39:27;;;;;;;8.00;7.20;;;28.90;51.20;;;;;;5084706;28;20206;-73
2021/06/04 07:41:55;;;;;;;8.47;7.10;;;29.00;50.30;;;;;;5084248;28;20228;-73
2021/06/04 07:44:23;;;;;;;8.40;5.97;;;29.10;50.10;;;;;;5083435;28;20224;-73
2021/06/04 07:46:52;;;;;;;9.07;6.37;;;29.30;49.20;;;;;;5084946;28;20224;-73
2021/06/04 07:49:20;;;;;;;7.53;6.83;;;29.30;49.20;;;;;;5086674;28;20312;-73
2021/06/04 07:51:50;;;;;;;10.00;6.53;;;29.50;48.40;;;;;;5083474;28;20217;-73
2021/06/04 07:54:19;;;;;;;8.37;5.80;;;29.50;48.80;;;;;;5085174;28;20225;-69
2021/06/04 07:56:47;;;;;;;12.83;7.13;;;29.70;49.20;;;;;;5082477;28;20218;-69
2021/06/04 07:59:14;;;;;;;8.30;6.80;;;29.70;48.00;;;;;;5086380;28;20220;-68
2021/06/04 08:01:42;;;;;;;10.10;6.30;;;29.70;48.80;;;;;;5084593;28;20221;-68
2021/06/04 08:04:10;;;;;;;8.10;6.60;;;29.70;48.70;;;;;;5083367;28;20241;-68
2021/06/04 08:06:39;;;;;;;9.23;5.90;;;29.80;48.40;;;;;;5086349;28;20728;-73
2021/06/04 08:09:09;;;;;;;10.10;6.47;;;29.80;48.10;;;;;;5084373;28;20591;-74
2021/06/04 08:11:43;;;;;;;7.43;6.73;;;29.90;48.00;;;;;;5083613;28;20222;-74
2021/06/04 08:14:14;;;;;;;8.17;5.80;;;30.00;47.10;;;;;;5083094;28;20227;-74
2021/06/04 08:16:41;;;;;;;9.23;5.57;;;30.20;47.30;;;;;;5084044;28;20718;-74
2021/06/04 08:19:09;;;;;;;7.17;5.80;;;30.30;46.90;;;;;;5086098;28;20545;-70
2021/06/04 08:21:41;;;;;;;7.30;5.10;;;30.40;47.50;;;;;;5081732;28;20213;-70
2021/06/04 08:24:12;;;;;;;5.60;4.90;;;30.60;46.90;;;;;;5085595;28;20217;-70
2021/06/04 08:26:39;;;;;;;5.90;5.10;;;30.60;45.40;;;;;;5078783;28;20363;-75
2021/06/04 08:29:08;;;;;;;9.30;5.47;;;30.70;45.10;;;;;;5081097;28;20546;-75
2021/06/04 08:31:36;;;;;;;6.20;5.40;;;30.80;44.50;;;;;;5082387;28;20221;-74
2021/06/04 08:34:04;;;;;;;10.83;6.50;;;30.80;45.20;;;;;;5075485;28;20342;-74
2021/06/04 08:36:35;;;;;;;8.53;5.87;;;30.80;45.80;;;;;;5084407;28;20213;-74
2021/06/04 08:39:09;;;;;;;7.33;6.60;;;30.90;44.70;;;;;;5084060;28;20213;-74
2021/06/04 08:42:15;;;;;;;12.20;5.87;;;31.00;43.80;;;;;;5086180;28;20220;-73
2021/06/04 08:44:54;;;;;;;16.20;6.33;;;30.80;43.80;;;;;;4996800;28;20251;-71
2021/06/04 08:47:23;;;;;;;9.77;6.10;;;30.80;44.10;;;;;;5000961;28;20225;-72
2021/06/04 08:50:11;;;;;;;5.80;5.03;;;30.60;43.10;;;;;;5036993;28;20213;-72
2021/06/04 08:53:08;;;;;;;8.23;5.60;;;30.60;43.50;;;;;;5079504;28;20229;-72
2021/06/04 08:55:49;;;;;;;5.50;5.00;;;30.60;43.70;;;;;;5081601;28;20233;-72
2021/06/04 08:58:31;;;;;;;7.07;5.10;;;30.40;42.40;;;;;;5062156;28;20210;-72
2021/06/04 09:01:12;;;;;;;10.37;5.23;;;30.30;42.60;;;;;;5078729;28;20214;-72
2021/06/04 09:03:49;;;;;;;9.67;5.20;;;30.40;43.60;;;;;;5078527;28;20213;-72
2021/06/04 09:06:35;;;;;;;10.00;5.00;;;30.60;44.60;;;;;;5082721;28;20209;-73
2021/06/04 09:09:28;;;;;;;6.37;5.87;;;31.00;44.70;;;;;;5081693;28;20218;-72
2021/06/04 09:12:04;;;;;;;10.40;4.87;;;31.30;44.40;;;;;;5074249;28;20217;-72
2021/06/04 09:14:31;;;;;;;5.80;5.23;;;31.50;44.30;;;;;;5081119;28;20315;-71
2021/06/04 09:17:26;;;;;;;5.60;5.10;;;31.70;43.50;;;;;;5084650;28;20221;-72
2021/06/04 09:19:56;;;;;;;8.37;4.97;;;31.80;43.30;;;;;;5084548;28;20221;-72
2021/06/04 09:22:27;;;;;;;9.33;5.03;;;32.00;42.40;;;;;;5082964;28;20213;-73
2021/06/04 09:24:55;;;;;;;5.60;4.90;;;32.10;43.10;;;;;;5082552;28;20673;-73
2021/06/04 09:27:36;;;;;;;7.60;5.30;;;32.30;43.00;;;;;;5084972;28;20216;-73
2021/06/04 09:30:25;;;;;;;12.50;5.37;;;32.40;42.40;;;;;;5084839;28;20212;-72
2021/06/04 09:33:19;;;;;;;5.77;5.17;;;32.50;42.20;;;;;;5082976;28;20253;-72
2021/06/04 09:36:13;;;;;;;7.27;5.10;;;32.50;43.50;;;;;;5076753;28;20236;-73
2021/06/04 09:39:06;;;;;;;8.37;6.17;;;32.60;43.80;;;;;;5080557;28;20622;-72
2021/06/04 09:41:44;;;;;;;6.20;5.70;;;32.50;42.30;;;;;;5081647;28;20213;-72
2021/06/04 09:44:17;;;;;;;8.80;5.70;;;32.30;41.80;;;;;;5079552;28;20224;-73
2021/06/04 09:47:05;;;;;;;7.33;4.63;;;32.30;42.00;;;;;;5081781;28;20206;-72
2021/06/04 09:49:42;;;;;;;7.20;4.43;;;32.40;42.20;;;;;;5083644;28;20255;-72
2021/06/04 09:52:15;;;;;;;5.23;4.70;;;32.50;42.70;;;;;;5080708;28;20217;-72
2021/06/04 09:54:43;;;;;;;6.30;4.90;;;32.70;42.50;;;;;;5080327;28;20237;-72
2021/06/04 09:57:17;;;;;;;4.87;4.50;;;32.70;42.00;;;;;;5083868;28;20216;-71
2021/06/04 09:59:44;;;;;;;7.97;4.43;;;32.70;43.10;;;;;;5084565;28;20221;-70
2021/06/04 10:02:30;;;;;;;8.50;5.33;;;32.80;43.30;;;;;;5078154;28;20760;-70
2021/06/04 10:05:27;;;;;;;5.03;4.60;;;32.80;40.70;;;;;;5075300;28;20237;-73
2021/06/04 10:08:14;;;;;;;6.97;4.87;;;32.60;41.70;;;;;;5080166;28;20723;-73
2021/06/04 10:10:41;;;;;;;10.50;6.23;;;32.50;42.20;;;;;;5061936;28;20213;-73
2021/06/04 10:13:34;;;;;;;9.53;4.47;;;32.60;41.20;;;;;;5080743;28;20209;-73
2021/06/04 10:16:04;;;;;;;7.83;5.23;;;32.50;41.90;;;;;;5084536;28;20283;-73
2021/06/04 10:18:31;;;;;;;8.83;5.60;;;32.50;41.20;;;;;;5082469;28;20213;-73
2021/06/04 10:21:28;;;;;;;6.50;4.30;;;32.50;41.90;;;;;;5085643;28;20221;-73
2021/06/04 10:23:56;;;;;;;5.00;4.60;;;32.60;42.50;;;;;;5088299;28;20208;-73
2021/06/04 10:26:35;;;;;;;6.87;5.33;;;32.70;42.70;;;;;;5087291;28;20220;-72
2021/06/04 10:29:07;;;;;;;5.47;3.90;;;32.90;41.90;;;;;;5088064;28;20553;-72
2021/06/04 10:31:43;;;;;;;6.77;5.00;;;33.00;42.30;;;;;;5086325;28;20782;-72
2021/06/04 10:34:28;;;;;;;12.43;4.90;;;33.10;41.50;;;;;;5080176;28;20279;-72
2021/06/04 10:36:57;;;;;;;5.60;5.00;;;33.10;42.00;;;;;;5087701;28;20524;-72
2021/06/04 10:39:33;;;;;;;6.03;5.30;;;33.20;40.80;;;;;;5085701;28;20645;-72
2021/06/04 10:42:26;;;;;;;7.47;5.57;;;33.20;41.40;;;;;;5084392;28;20235;-73
2021/06/04 10:45:22;;;;;;;10.90;5.47;;;33.00;40.30;;;;;;5079050;28;20218;-73
2021/06/04 10:47:49;;;;;;;8.97;5.10;;;32.90;40.90;;;;;;5068306;28;20210;-73
2021/06/04 10:50:22;;;;;;;7.40;4.87;;;32.80;42.20;;;;;;5086592;28;20534;-73
2021/06/04 10:52:59;;;;;;;6.60;5.47;;;32.70;41.50;;;;;;5084627;28;20547;-73
2021/06/04 10:55:33;;;;;;;5.73;4.47;;;32.70;41.60;;;;;;5087342;28;20244;-73
2021/06/04 10:58:19;;;;;;;5.67;4.87;;;32.80;41.70;;;;;;5085589;28;20205;-72
2021/06/04 11:00:54;;;;;;;9.33;4.77;;;32.90;41.60;;;;;;5083069;28;20209;-72
2021/06/04 11:03:43;;;;;;;5.37;4.47;;;33.00;42.40;;;;;;5087425;28;20727;-72
2021/06/04 11:06:26;;;;;;;7.30;3.90;;;33.20;42.10;;;;;;5076753;28;20218;-72
2021/06/04 11:09:16;;;;;;;8.37;4.30;;;33.30;42.10;;;;;;5084157;28;20247;-73
2021/06/04 11:12:07;;;;;;;6.07;4.10;;;33.50;41.30;;;;;;5084177;28;20210;-72
2021/06/04 11:14:49;;;;;;;5.03;4.53;;;33.60;41.00;;;;;;5073825;28;20260;-72
2021/06/04 11:17:43;;;;;;;6.73;5.13;;;33.30;40.70;;;;;;5087138;28;20235;-72
2021/06/04 11:20:11;;;;;;;5.87;4.60;;;33.10;41.10;;;;;;5081549;28;20254;-72
2021/06/04 11:22:53;;;;;;;5.60;4.10;;;33.00;40.80;;;;;;5085136;28;20213;-72
2021/06/04 11:25:36;;;;;;;4.67;4.03;;;33.00;42.10;;;;;;5082225;28;20232;-72
2021/06/04 11:28:36;;;;;;;4.87;4.37;;;33.10;42.70;;;;;;5081121;28;20232;-72
2021/06/04 11:31:06;;;;;;;6.43;4.37;;;33.30;41.90;;;;;;5070596;28;20213;-72
2021/06/04 11:33:36;;;;;;;7.07;4.07;;;33.40;42.20;;;;;;5081199;28;20722;-72
2021/06/04 11:36:18;;;;;;;6.57;4.07;;;33.50;42.60;;;;;;5085109;28;20336;-72
2021/06/04 11:38:57;;;;;;;4.70;4.20;;;33.50;43.40;;;;;;5080978;28;20213;-72
2021/06/04 11:41:47;;;;;;;6.00;3.90;;;33.50;41.30;;;;;;5083642;28;20220;-72
2021/06/04 11:44:43;;;;;;;3.97;3.57;;;33.40;40.30;;;;;;5079178;28;20277;-72
2021/06/04 11:47:13;;;;;;;4.53;3.60;;;33.30;41.40;;;;;;5081854;28;20225;-72
2021/06/04 11:49:55;;;;;;;6.60;3.33;;;33.30;42.00;;;;;;5083442;28;20210;-72
2021/06/04 11:52:41;;;;;;;3.80;3.00;;;33.30;42.30;;;;;;5083226;28;20212;-72
2021/06/04 11:55:12;;;;;;;4.27;3.43;;;33.50;41.40;;;;;;5083310;28;20236;-73
2021/06/04 11:57:49;;;;;;;4.27;3.10;;;33.60;41.50;;;;;;5083135;28;20681;-73
2021/06/04 12:00:28;;;;;;;9.90;3.20;;;33.70;40.90;;;;;;5083749;28;20646;-72
2021/06/04 12:03:04;;;;;;;4.90;3.20;;;33.80;39.80;;;;;;5080605;28;20270;-73
2021/06/04 12:05:46;;;;;;;5.67;3.40;;;33.80;39.80;;;;;;5082502;28;20221;-73
2021/06/04 12:08:35;;;;;;;7.80;3.60;;;33.80;39.70;;;;;;5083312;28;20263;-72
2021/06/04 12:11:30;;;;;;;5.80;3.20;;;33.90;40.50;;;;;;5085336;28;20213;-72
2021/06/04 12:14:16;;;;;;;4.30;3.77;;;33.90;40.60;;;;;;5079084;28;20236;-72
2021/06/04 12:16:47;;;;;;;4.07;3.20;;;33.90;39.80;;;;;;5084514;28;20220;-72
2021/06/04 12:19:16;;;;;;;3.67;2.90;;;33.90;39.40;;;;;;5083527;28;20699;-72
2021/06/04 12:21:50;;;;;;;5.37;3.80;;;33.80;41.30;;;;;;5082756;28;20218;-72
2021/06/04 12:27:00;;;;;;;4.43;3.47;;;33.70;39.50;;;;;;5085183;28;20213;-72
2021/06/04 12:29:27;;;;;;;3.93;3.33;;;33.60;39.80;;;;;;5063482;28;20218;-72
2021/06/04 12:32:01;;;;;;;7.30;3.67;;;33.50;39.60;;;;;;5085215;28;20205;-73
2021/06/04 12:34:32;;;;;;;7.07;3.43;;;33.40;39.80;;;;;;5080097;28;20249;-73
2021/06/04 12:37:21;;;;;;;5.17;3.57;;;33.30;40.60;;;;;;5082899;28;20267;-73
2021/06/04 12:40:25;;;;;;;5.87;3.10;;;33.30;41.30;;;;;;5084833;28;20231;-73
2021/06/04 12:43:17;;;;;;;5.57;3.00;;;33.40;40.00;;;;;;5082490;28;20260;-73
2021/06/04 12:45:55;;;;;;;3.97;3.40;;;33.30;39.90;;;;;;5080270;28;20217;-72
2021/06/04 12:48:31;;;;;;;5.33;3.73;;;33.10;38.90;;;;;;5080623;28;20224;-72
2021/06/04 12:50:58;;;;;;;6.73;3.60;;;32.80;38.60;;;;;;5082328;28;20209;-73
2021/06/04 12:53:33;;;;;;;3.43;3.13;;;32.70;38.90;;;;;;5084698;28;20216;-72
2021/06/04 12:56:01;;;;;;;6.40;3.10;;;32.60;39.30;;;;;;5085105;28;20240;-72
2021/06/04 12:58:30;;;;;;;5.93;3.20;;;32.60;39.60;;;;;;5078607;28;20209;-72
2021/06/04 13:01:11;;;;;;;7.30;3.10;;;32.50;40.50;;;;;;5082674;28;20209;-73
2021/06/04 13:03:52;;;;;;;3.90;2.80;;;32.40;39.40;;;;;;5077193;28;20318;-71
2021/06/04 13:06:25;;;;;;;3.90;3.10;;;32.30;38.20;;;;;;5081904;28;20218;-72
2021/06/04 13:08:53;;;;;;;7.73;3.50;;;32.30;38.80;;;;;;5078388;28;20624;-72
2021/06/04 13:11:45;;;;;;;6.83;3.13;;;32.30;39.20;;;;;;5084739;28;20612;-72
2021/06/04 13:14:22;;;;;;;5.87;3.10;;;32.40;38.30;;;;;;5085266;28;20304;-72
2021/06/04 13:16:50;;;;;;;4.13;3.30;;;32.50;38.80;;;;;;5082526;28;20629;-72